createdAt,value
2017-12-14T00:00:49.263Z,99.40
2017-12-14T00:03:17.476Z,99.40
2017-12-14T00:05:44.995Z,99.40
2017-12-14T00:08:12.452Z,99.30
2017-12-14T00:10:39.916Z,99.40
2017-12-14T00:13:07.482Z,99.30
2017-12-14T00:15:34.966Z,98.80
2017-12-14T00:18:03.278Z,98.60
2017-12-14T00:20:30.832Z,98.30
2017-12-14T00:22:58.301Z,98.10
2017-12-14T00:25:25.811Z,98.00
2017-12-14T00:27:53.263Z,97.70
2017-12-14T00:30:21.508Z,97.30
2017-12-14T00:32:48.989Z,97.30
2017-12-14T00:35:16.515Z,97.30
2017-12-14T00:37:43.960Z,97.40
2017-12-14T00:40:12.213Z,97.40
2017-12-14T00:42:39.705Z,97.30
2017-12-14T00:45:07.960Z,97.50
2017-12-14T00:47:35.409Z,97.40
2017-12-14T00:50:02.877Z,97.30
2017-12-14T00:52:30.355Z,96.90
2017-12-14T00:54:58.590Z,96.80
2017-12-14T00:57:26.157Z,96.40
2017-12-14T00:59:53.737Z,96.40
2017-12-14T01:02:22.239Z,96.40
2017-12-14T01:04:49.725Z,96.40
2017-12-14T01:07:17.985Z,96.50
2017-12-14T01:09:45.425Z,96.50
2017-12-14T01:12:12.931Z,96.60
2017-12-14T01:14:40.387Z,96.60
2017-12-14T01:17:07.863Z,97.10
2017-12-14T01:19:35.314Z,96.70
2017-12-14T01:22:03.572Z,96.40
2017-12-14T01:24:31.008Z,96.30
2017-12-14T01:26:58.531Z,96.40
2017-12-14T01:29:26.738Z,96.70
2017-12-14T01:31:54.196Z,96.60
2017-12-14T01:34:21.703Z,96.40
2017-12-14T01:36:49.159Z,96.40
2017-12-14T01:39:16.812Z,96.40
2017-12-14T01:41:44.245Z,96.40
2017-12-14T01:44:11.706Z,96.40
2017-12-14T01:46:39.221Z,96.40
2017-12-14T01:49:06.756Z,96.40
2017-12-14T01:51:34.299Z,96.30
2017-12-14T01:54:01.744Z,96.30
2017-12-14T01:56:29.198Z,96.40
2017-12-14T01:58:57.412Z,96.40
2017-12-14T02:01:24.885Z,96.30
2017-12-14T02:03:52.378Z,96.30
2017-12-14T02:06:19.782Z,96.50
2017-12-14T02:08:47.334Z,96.40
2017-12-14T02:11:14.758Z,96.40
2017-12-14T02:13:42.202Z,96.30
2017-12-14T02:16:09.739Z,96.30
2017-12-14T02:18:37.161Z,96.20
2017-12-14T02:21:04.732Z,96.50
2017-12-14T02:23:33.028Z,95.90
2017-12-14T02:26:00.482Z,95.90
2017-12-14T02:28:28.739Z,95.80
2017-12-14T02:30:56.220Z,95.70
2017-12-14T02:33:23.741Z,95.70
2017-12-14T02:35:51.258Z,95.50
2017-12-14T02:38:18.722Z,95.60
2017-12-14T02:40:46.964Z,95.20
2017-12-14T02:43:14.479Z,95.20
2017-12-14T02:45:41.952Z,95.20
2017-12-14T02:48:09.409Z,95.10
2017-12-14T02:50:36.930Z,94.90
2017-12-14T02:53:05.215Z,94.90
2017-12-14T02:55:33.438Z,94.80
2017-12-14T02:58:00.940Z,94.80
2017-12-14T03:00:28.405Z,94.90
2017-12-14T03:02:55.928Z,95.00
2017-12-14T03:05:23.419Z,94.90
2017-12-14T03:07:50.889Z,94.90
2017-12-14T03:10:18.409Z,95.10
2017-12-14T03:12:45.914Z,94.80
2017-12-14T03:15:13.413Z,94.70
2017-12-14T03:17:41.702Z,94.70
2017-12-14T03:20:09.125Z,94.60
2017-12-14T03:22:36.574Z,94.60
2017-12-14T03:25:04.031Z,94.30
2017-12-14T03:27:31.611Z,94.90
2017-12-14T03:29:59.008Z,94.50
2017-12-14T03:32:26.485Z,94.40
2017-12-14T03:34:53.962Z,94.70
2017-12-14T03:37:21.516Z,94.70
2017-12-14T03:39:49.005Z,94.80
2017-12-14T03:42:16.491Z,95.00
2017-12-14T03:44:43.933Z,95.00
2017-12-14T03:47:11.401Z,95.00
2017-12-14T03:49:38.895Z,95.10
2017-12-14T03:52:07.129Z,95.60
2017-12-14T03:54:34.591Z,95.20
2017-12-14T03:57:02.101Z,95.00
2017-12-14T03:59:29.543Z,95.20
2017-12-14T04:01:57.026Z,95.50
2017-12-14T04:04:25.277Z,95.10
2017-12-14T04:06:52.774Z,95.10
2017-12-14T04:09:21.046Z,95.80
2017-12-14T04:11:48.536Z,95.80
2017-12-14T04:14:15.999Z,96.30
2017-12-14T04:16:44.203Z,97.00
2017-12-14T04:19:11.740Z,97.00
2017-12-14T04:21:39.229Z,97.20
2017-12-14T04:24:06.708Z,97.60
2017-12-14T04:26:34.194Z,97.60
2017-12-14T04:29:03.173Z,97.80
2017-12-14T04:31:30.650Z,97.80
2017-12-14T04:33:58.893Z,97.90
2017-12-14T04:36:26.365Z,97.90
2017-12-14T04:38:53.851Z,98.10
2017-12-14T04:41:21.320Z,97.80
2017-12-14T04:43:48.784Z,97.70
2017-12-14T04:46:16.266Z,97.60
2017-12-14T04:48:44.572Z,98.00
2017-12-14T04:51:12.062Z,98.00
2017-12-14T04:53:39.586Z,98.20
2017-12-14T04:56:07.034Z,98.30
2017-12-14T04:58:35.312Z,98.40
2017-12-14T05:01:03.528Z,98.50
2017-12-14T05:03:31.028Z,98.50
2017-12-14T05:05:59.268Z,97.90
2017-12-14T05:08:26.767Z,97.90
2017-12-14T05:10:54.233Z,98.30
2017-12-14T05:13:21.788Z,98.40
2017-12-14T05:15:49.324Z,98.50
2017-12-14T05:18:16.809Z,98.50
2017-12-14T05:20:44.295Z,98.60
2017-12-14T05:23:11.859Z,98.60
2017-12-14T05:25:39.342Z,98.50
2017-12-14T05:28:07.568Z,98.70
2017-12-14T05:30:35.061Z,98.70
2017-12-14T05:33:02.527Z,98.60
2017-12-14T05:35:30.216Z,98.90
2017-12-14T05:37:58.613Z,99.00
2017-12-14T05:40:26.171Z,99.00
2017-12-14T05:42:54.389Z,99.20
2017-12-14T05:45:21.906Z,99.20
2017-12-14T05:47:49.335Z,99.30
2017-12-14T05:50:16.870Z,99.30
2017-12-14T05:52:44.274Z,99.10
2017-12-14T05:55:11.738Z,99.30
2017-12-14T05:57:39.228Z,99.10
2017-12-14T06:00:06.738Z,99.10
2017-12-14T06:02:34.204Z,99.20
2017-12-14T06:05:01.695Z,99.10
2017-12-14T06:07:29.192Z,99.30
2017-12-14T06:09:56.689Z,99.30
2017-12-14T06:12:24.149Z,99.40
2017-12-14T06:14:51.606Z,99.40
2017-12-14T06:17:19.109Z,99.40
2017-12-14T06:19:46.576Z,99.40
2017-12-14T06:22:14.070Z,99.20
2017-12-14T06:24:41.532Z,99.40
2017-12-14T06:27:08.954Z,99.40
2017-12-14T06:29:37.221Z,99.70
2017-12-14T06:32:04.694Z,99.40
2017-12-14T06:34:32.154Z,99.30
2017-12-14T06:36:59.622Z,99.30
2017-12-14T06:39:27.998Z,99.40
2017-12-14T06:41:55.539Z,99.20
2017-12-14T06:44:23.006Z,99.30
2017-12-14T06:46:50.523Z,99.40
2017-12-14T06:49:18.006Z,99.40
2017-12-14T06:51:46.216Z,99.40
2017-12-14T06:54:13.671Z,99.40
2017-12-14T06:56:41.196Z,99.40
2017-12-14T06:59:08.660Z,99.40
2017-12-14T07:01:36.170Z,99.40
2017-12-14T07:04:03.627Z,99.50
2017-12-14T07:06:31.164Z,99.60
2017-12-14T07:08:59.414Z,99.90
2017-12-14T07:11:27.652Z,99.90
2017-12-14T07:13:55.149Z,99.80
2017-12-14T07:16:22.606Z,99.80
2017-12-14T07:18:50.861Z,99.90
2017-12-14T07:21:19.851Z,99.70
2017-12-14T07:23:47.359Z,99.80
2017-12-14T07:26:15.592Z,99.60
2017-12-14T07:28:43.127Z,99.50
2017-12-14T07:31:10.587Z,99.50
2017-12-14T07:33:38.102Z,99.50
2017-12-14T07:36:05.553Z,99.50
2017-12-14T07:38:33.068Z,99.50
2017-12-14T07:41:00.574Z,99.50
2017-12-14T07:43:28.096Z,99.50
2017-12-14T07:45:55.569Z,99.50
2017-12-14T07:48:23.050Z,99.50
2017-12-14T07:50:50.547Z,99.50
2017-12-14T07:53:18.128Z,99.50
2017-12-14T07:55:48.778Z,99.50
2017-12-14T07:58:16.241Z,99.50
2017-12-14T08:00:43.750Z,99.70
2017-12-14T08:03:11.276Z,99.70
2017-12-14T08:05:38.736Z,99.90
2017-12-14T08:08:06.283Z,99.90
2017-12-14T08:10:33.751Z,99.90
2017-12-14T08:13:01.299Z,99.90
2017-12-14T08:15:28.739Z,99.80
2017-12-14T08:17:56.275Z,99.50
2017-12-14T08:20:23.739Z,99.50
2017-12-14T08:22:51.260Z,99.30
2017-12-14T08:25:19.557Z,98.70
2017-12-14T08:27:46.995Z,98.70
2017-12-14T08:30:15.265Z,98.20
2017-12-14T08:32:42.754Z,98.50
2017-12-14T08:35:10.306Z,98.40
2017-12-14T08:37:37.728Z,98.00
2017-12-14T08:40:05.234Z,97.80
2017-12-14T08:42:32.679Z,97.70
2017-12-14T08:45:00.968Z,97.60
2017-12-14T08:47:28.456Z,97.60
2017-12-14T08:49:55.922Z,97.40
2017-12-14T08:52:23.406Z,97.30
2017-12-14T08:54:50.861Z,97.40
2017-12-14T08:57:18.341Z,97.30
2017-12-14T08:59:45.878Z,97.50
2017-12-14T09:02:13.326Z,97.40
2017-12-14T09:04:40.803Z,97.00
2017-12-14T09:07:08.276Z,97.10
2017-12-14T09:09:35.772Z,97.00
2017-12-14T09:12:03.237Z,97.10
2017-12-14T09:14:30.721Z,97.20
2017-12-14T09:16:58.983Z,97.30
2017-12-14T09:19:26.426Z,97.30
2017-12-14T09:21:53.963Z,96.60
2017-12-14T09:24:21.448Z,96.70
2017-12-14T09:26:48.908Z,96.40
2017-12-14T09:29:16.456Z,96.40
2017-12-14T09:31:44.631Z,96.00
2017-12-14T09:34:12.160Z,95.90
2017-12-14T09:36:40.454Z,95.90
2017-12-14T09:39:08.645Z,95.90
2017-12-14T09:41:36.293Z,95.90
2017-12-14T09:44:03.754Z,95.90
2017-12-14T09:46:31.989Z,95.50
2017-12-14T09:48:59.464Z,95.50
2017-12-14T09:51:26.913Z,95.20
2017-12-14T09:53:54.429Z,95.00
2017-12-14T09:56:22.637Z,95.20
2017-12-14T09:58:50.163Z,95.20
2017-12-14T10:01:18.390Z,94.60
2017-12-14T10:03:45.888Z,94.60
2017-12-14T10:06:13.367Z,94.30
2017-12-14T10:08:40.823Z,94.20
2017-12-14T10:11:09.122Z,93.90
2017-12-14T10:13:37.363Z,94.20
2017-12-14T10:16:04.804Z,94.10
2017-12-14T10:18:32.263Z,94.30
2017-12-14T10:20:59.811Z,93.60
2017-12-14T10:23:28.027Z,93.90
2017-12-14T10:25:55.578Z,93.90
2017-12-14T10:28:23.055Z,94.00
2017-12-14T10:30:50.518Z,93.70
2017-12-14T10:33:18.029Z,93.80
2017-12-14T10:35:45.499Z,94.10
2017-12-14T10:38:13.037Z,93.90
2017-12-14T10:40:41.308Z,94.20
2017-12-14T10:43:08.848Z,94.20
2017-12-14T10:45:36.303Z,94.10
2017-12-14T10:48:03.773Z,94.40
2017-12-14T10:50:31.249Z,95.10
2017-12-14T10:52:58.826Z,96.20
2017-12-14T10:55:27.013Z,96.70
2017-12-14T10:57:55.302Z,97.10
2017-12-14T11:00:23.539Z,97.20
2017-12-14T11:02:51.004Z,97.10
2017-12-14T11:05:18.499Z,97.20
2017-12-14T11:07:46.728Z,96.60
2017-12-14T11:10:14.266Z,96.60
2017-12-14T11:12:41.721Z,96.20
2017-12-14T11:15:09.297Z,96.20
2017-12-14T11:17:36.723Z,96.20
2017-12-14T11:20:05.043Z,94.90
2017-12-14T11:22:33.249Z,94.60
2017-12-14T11:25:00.968Z,94.60
2017-12-14T11:27:28.478Z,94.70
2017-12-14T11:29:55.969Z,94.90
2017-12-14T11:32:23.418Z,94.70
2017-12-14T11:34:50.918Z,95.20
2017-12-14T11:37:18.384Z,94.00
2017-12-14T11:39:45.904Z,93.90
2017-12-14T11:42:13.369Z,93.70
2017-12-14T11:44:40.880Z,93.10
2017-12-14T11:47:08.361Z,93.80
2017-12-14T11:49:35.870Z,93.30
2017-12-14T11:52:04.172Z,92.60
2017-12-14T11:54:31.603Z,92.60
2017-12-14T11:56:59.095Z,92.50
2017-12-14T11:59:27.329Z,92.60
2017-12-14T12:01:54.805Z,92.50
2017-12-14T12:04:22.309Z,92.20
2017-12-14T12:06:49.805Z,92.20
2017-12-14T12:09:17.292Z,92.50
2017-12-14T12:11:44.819Z,92.40
2017-12-14T12:14:12.357Z,92.10
2017-12-14T12:16:39.843Z,91.90
2017-12-14T12:19:07.292Z,92.00
2017-12-14T12:21:34.850Z,91.50
2017-12-14T12:24:02.413Z,91.80
2017-12-14T12:26:29.875Z,92.30
2017-12-14T12:28:57.410Z,92.20
2017-12-14T12:31:25.868Z,92.30
2017-12-14T12:33:53.360Z,92.30
2017-12-14T12:36:21.541Z,91.80
2017-12-14T12:38:49.034Z,91.80
2017-12-14T12:41:16.543Z,92.30
2017-12-14T12:43:44.046Z,91.80
2017-12-14T12:46:11.570Z,92.00
2017-12-14T12:48:38.988Z,92.50
2017-12-14T12:51:06.512Z,92.20
2017-12-14T12:53:33.986Z,92.10
2017-12-14T12:56:02.527Z,92.10
2017-12-14T12:58:29.938Z,92.10
2017-12-14T13:00:58.240Z,92.40
2017-12-14T13:03:25.753Z,92.30
2017-12-14T13:05:53.267Z,92.50
2017-12-14T13:08:20.770Z,92.00
2017-12-14T13:10:48.401Z,92.30
2017-12-14T13:13:15.852Z,92.20
2017-12-14T13:15:43.364Z,92.50
2017-12-14T13:18:10.807Z,92.50
2017-12-14T13:20:38.366Z,92.50
2017-12-14T13:23:05.867Z,92.40
2017-12-14T13:25:33.408Z,92.40
2017-12-14T13:28:01.631Z,92.40
2017-12-14T13:30:29.850Z,92.40
2017-12-14T13:32:57.407Z,92.40
2017-12-14T13:35:25.615Z,92.40
2017-12-14T13:37:53.086Z,92.40
2017-12-14T13:40:20.624Z,92.40
2017-12-14T13:42:48.162Z,92.30
2017-12-14T13:45:15.731Z,92.30
2017-12-14T13:47:43.202Z,92.30
2017-12-14T13:50:10.695Z,92.30
2017-12-14T13:52:38.205Z,92.20
2017-12-14T13:55:06.614Z,91.40
2017-12-14T13:57:33.992Z,91.40
2017-12-14T14:00:02.211Z,91.60
2017-12-14T14:02:29.811Z,91.60
2017-12-14T14:04:57.328Z,91.40
2017-12-14T14:07:24.807Z,91.80
2017-12-14T14:09:52.333Z,91.60
2017-12-14T14:12:20.585Z,91.30
2017-12-14T14:14:48.040Z,91.20
2017-12-14T14:17:15.567Z,91.30
2017-12-14T14:19:43.069Z,91.20
2017-12-14T14:22:10.585Z,91.60
2017-12-14T14:24:38.157Z,91.60
2017-12-14T14:27:05.615Z,91.90
2017-12-14T14:29:33.066Z,91.90
2017-12-14T14:32:00.841Z,91.80
2017-12-14T14:34:28.359Z,92.00
2017-12-14T14:36:57.328Z,91.90
2017-12-14T14:39:28.292Z,91.90
2017-12-14T14:41:55.872Z,92.20
2017-12-14T14:44:23.385Z,91.90
2017-12-14T14:46:50.812Z,92.20
2017-12-14T14:49:18.331Z,92.20
2017-12-14T14:51:45.820Z,92.20
2017-12-14T14:54:14.059Z,92.40
2017-12-14T14:56:41.529Z,92.30
2017-12-14T14:59:09.769Z,92.20
2017-12-14T15:01:37.265Z,92.20
2017-12-14T15:04:04.756Z,92.20
2017-12-14T15:06:33.318Z,92.40
2017-12-14T15:09:00.773Z,92.30
2017-12-14T15:11:28.274Z,92.10
2017-12-14T15:13:55.756Z,92.30
2017-12-14T15:16:24.002Z,92.20
2017-12-14T15:18:52.300Z,92.30
2017-12-14T15:21:20.518Z,92.20
2017-12-14T15:23:48.087Z,92.20
2017-12-14T15:26:15.541Z,92.30
2017-12-14T15:28:43.014Z,92.10
2017-12-14T15:31:10.466Z,92.40
2017-12-14T15:33:37.983Z,92.30
2017-12-14T15:36:05.456Z,92.50
2017-12-14T15:38:32.923Z,92.60
2017-12-14T15:41:00.435Z,92.50
2017-12-14T15:43:27.927Z,92.90
2017-12-14T15:45:56.221Z,91.70
2017-12-14T15:48:23.702Z,91.70
2017-12-14T15:50:51.192Z,92.10
2017-12-14T15:53:18.678Z,92.40
2017-12-14T15:55:46.145Z,92.70
2017-12-14T15:58:13.660Z,92.70
2017-12-14T16:00:41.904Z,92.70
2017-12-14T16:03:10.193Z,92.60
2017-12-14T16:05:38.424Z,92.70
2017-12-14T16:08:06.063Z,92.60
2017-12-14T16:10:33.559Z,92.60
2017-12-14T16:13:01.079Z,92.70
2017-12-14T16:15:28.592Z,92.50
2017-12-14T16:17:56.074Z,92.50
2017-12-14T16:20:23.546Z,92.70
2017-12-14T16:22:51.133Z,92.50
2017-12-14T16:25:18.601Z,92.70
2017-12-14T16:27:46.298Z,93.00
2017-12-14T16:30:14.494Z,92.20
2017-12-14T16:32:42.037Z,92.20
2017-12-14T16:35:09.472Z,92.50
2017-12-14T16:37:37.111Z,92.30
2017-12-14T16:40:04.580Z,92.30
2017-12-14T16:42:32.046Z,92.40
2017-12-14T16:44:59.609Z,92.30
2017-12-14T16:47:27.059Z,92.60
2017-12-14T16:49:54.525Z,92.60
2017-12-14T16:52:22.779Z,92.40
2017-12-14T16:54:50.267Z,92.40
2017-12-14T16:57:18.544Z,92.20
2017-12-14T16:59:46.065Z,92.10
2017-12-14T17:02:13.581Z,93.00
2017-12-14T17:04:41.068Z,92.10
2017-12-14T17:07:08.535Z,92.30
2017-12-14T17:09:36.067Z,92.30
2017-12-14T17:12:03.522Z,91.90
2017-12-14T17:14:30.988Z,92.00
2017-12-14T17:16:58.453Z,92.30
2017-12-14T17:19:26.757Z,91.30
2017-12-14T17:21:54.294Z,91.30
2017-12-14T17:24:22.552Z,91.50
2017-12-14T17:26:50.032Z,91.50
2017-12-14T17:29:18.274Z,91.90
2017-12-14T17:31:45.822Z,91.80
2017-12-14T17:34:13.356Z,91.80
2017-12-14T17:36:41.640Z,91.70
2017-12-14T17:39:09.201Z,91.70
2017-12-14T17:41:36.644Z,92.00
2017-12-14T17:44:05.045Z,92.40
2017-12-14T17:46:32.571Z,92.40
2017-12-14T17:49:00.082Z,92.20
2017-12-14T17:51:27.582Z,92.20
2017-12-14T17:53:55.098Z,92.50
2017-12-14T17:56:23.398Z,92.40
2017-12-14T17:58:50.989Z,92.40
2017-12-14T18:01:19.240Z,92.20
2017-12-14T18:03:46.771Z,92.20
2017-12-14T18:06:14.179Z,92.30
2017-12-14T18:08:41.676Z,92.30
2017-12-14T18:11:09.185Z,92.40
2017-12-14T18:13:36.664Z,92.50
2017-12-14T18:16:04.170Z,92.60
2017-12-14T18:18:31.635Z,92.20
2017-12-14T18:20:59.150Z,92.20
2017-12-14T18:23:26.661Z,92.60
2017-12-14T18:25:54.223Z,92.40
2017-12-14T18:28:21.686Z,92.50
2017-12-14T18:30:49.113Z,92.70
2017-12-14T18:33:16.584Z,92.50
2017-12-14T18:35:44.863Z,92.60
2017-12-14T18:38:12.366Z,92.70
2017-12-14T18:40:40.673Z,92.90
2017-12-14T18:43:08.166Z,92.60
2017-12-14T18:45:35.631Z,92.70
2017-12-14T18:48:03.101Z,92.60
2017-12-14T18:50:30.567Z,92.50
2017-12-14T18:52:58.096Z,92.20
2017-12-14T18:55:25.545Z,92.60
2017-12-14T18:57:53.078Z,92.70
2017-12-14T19:00:20.562Z,92.50
2017-12-14T19:02:48.096Z,92.60
2017-12-14T19:05:15.579Z,92.80
2017-12-14T19:07:43.865Z,92.70
2017-12-14T19:10:11.470Z,92.70
2017-12-14T19:12:38.984Z,93.10
2017-12-14T19:15:07.259Z,92.70
2017-12-14T19:17:34.771Z,92.60
2017-12-14T19:20:02.322Z,93.10
2017-12-14T19:22:30.613Z,92.70
2017-12-14T19:24:58.078Z,92.70
2017-12-14T19:27:26.287Z,93.20
2017-12-14T19:29:53.733Z,93.20
2017-12-14T19:32:21.253Z,93.70
2017-12-14T19:34:48.707Z,94.20
2017-12-14T19:37:16.166Z,94.90
2017-12-14T19:39:44.453Z,94.50
2017-12-14T19:42:12.689Z,94.60
2017-12-14T19:44:40.204Z,94.60
2017-12-14T19:47:07.692Z,94.30
2017-12-14T19:49:35.145Z,94.60
2017-12-14T19:52:02.702Z,94.70
2017-12-14T19:54:30.181Z,95.00
2017-12-14T19:56:57.683Z,95.50
2017-12-14T19:59:25.215Z,95.80
2017-12-14T20:01:52.703Z,96.10
2017-12-14T20:04:20.236Z,96.10
2017-12-14T20:06:47.725Z,96.20
2017-12-14T20:09:15.204Z,96.20
2017-12-14T20:11:42.647Z,96.00
2017-12-14T20:14:10.203Z,95.90
2017-12-14T20:16:37.668Z,96.10
2017-12-14T20:19:05.164Z,96.20
2017-12-14T20:21:33.398Z,96.20
2017-12-14T20:24:00.877Z,96.20
2017-12-14T20:26:28.375Z,96.20
2017-12-14T20:28:56.747Z,96.30
2017-12-14T20:31:24.201Z,96.20
2017-12-14T20:33:51.651Z,96.10
2017-12-14T20:36:19.139Z,96.20
2017-12-14T20:38:46.599Z,96.20
2017-12-14T20:41:14.116Z,96.50
2017-12-14T20:43:41.603Z,96.20
2017-12-14T20:46:09.112Z,96.30
2017-12-14T20:48:36.563Z,96.20
2017-12-14T20:51:04.021Z,96.30
2017-12-14T20:53:31.510Z,96.30
2017-12-14T20:55:59.012Z,96.10
2017-12-14T20:58:26.512Z,96.00
2017-12-14T21:00:53.959Z,96.20
2017-12-14T21:03:21.495Z,96.10
2017-12-14T21:05:48.998Z,96.00
2017-12-14T21:08:16.525Z,96.00
2017-12-14T21:10:44.037Z,95.90
2017-12-14T21:13:11.562Z,95.70
2017-12-14T21:15:39.079Z,95.60
2017-12-14T21:18:06.573Z,95.60
2017-12-14T21:20:34.043Z,95.60
2017-12-14T21:23:01.544Z,95.60
2017-12-14T21:25:29.820Z,96.10
2017-12-14T21:27:57.303Z,95.70
2017-12-14T21:30:24.769Z,95.70
2017-12-14T21:32:52.241Z,95.70
2017-12-14T21:35:19.753Z,95.70
2017-12-14T21:37:47.169Z,95.70
2017-12-14T21:40:14.709Z,95.70
2017-12-14T21:42:42.944Z,95.80
2017-12-14T21:45:10.562Z,95.80
2017-12-14T21:47:38.829Z,96.20
2017-12-14T21:50:07.084Z,96.40
2017-12-14T21:52:34.555Z,96.40
2017-12-14T21:55:02.099Z,96.40
2017-12-14T21:57:30.398Z,96.60
2017-12-14T21:59:57.826Z,97.20
2017-12-14T22:02:25.392Z,97.20
2017-12-14T22:04:52.922Z,97.40
2017-12-14T22:07:20.429Z,97.30
2017-12-14T22:09:47.906Z,97.20
2017-12-14T22:12:15.391Z,97.40
2017-12-14T22:14:43.676Z,97.80
2017-12-14T22:17:11.958Z,97.80
2017-12-14T22:19:39.433Z,97.80
2017-12-14T22:22:07.672Z,97.80
2017-12-14T22:24:35.137Z,97.80
2017-12-14T22:27:02.701Z,98.10
2017-12-14T22:29:30.198Z,97.80
2017-12-14T22:31:58.430Z,97.80
2017-12-14T22:34:25.928Z,97.80
2017-12-14T22:36:53.386Z,97.70
2017-12-14T22:39:20.877Z,97.80
2017-12-14T22:41:49.085Z,97.90
2017-12-14T22:44:16.567Z,97.90
2017-12-14T22:46:44.051Z,98.00
2017-12-14T22:49:11.628Z,97.80
2017-12-14T22:51:39.042Z,97.70
2017-12-14T22:54:06.592Z,97.70
2017-12-14T22:56:34.045Z,97.70
2017-12-14T22:59:01.518Z,97.60
2017-12-14T23:01:29.062Z,97.50
2017-12-14T23:03:56.540Z,97.40
2017-12-14T23:06:24.016Z,97.30
2017-12-14T23:08:51.547Z,97.40
2017-12-14T23:11:18.997Z,97.30
2017-12-14T23:13:47.267Z,97.10
2017-12-14T23:16:15.545Z,97.20
2017-12-14T23:18:43.817Z,97.00
2017-12-14T23:21:11.285Z,97.00
2017-12-14T23:23:39.546Z,97.10
2017-12-14T23:26:07.013Z,97.10
2017-12-14T23:28:34.482Z,97.20
2017-12-14T23:31:01.977Z,97.00
2017-12-14T23:33:29.455Z,97.30
2017-12-14T23:35:56.950Z,97.20
2017-12-14T23:38:24.472Z,97.20
2017-12-14T23:40:52.698Z,97.40
2017-12-14T23:43:20.327Z,97.40
2017-12-14T23:45:47.810Z,97.20
2017-12-14T23:48:15.281Z,97.20
2017-12-14T23:50:42.755Z,97.10
2017-12-14T23:53:10.488Z,97.10
2017-12-14T23:55:38.000Z,97.10
2017-12-14T23:58:05.669Z,97.10
